フランクフルト の空港の天気 - METARとTAF

フランクフルト国際空港 ( EDDF / FRA ) - ドイツ フランクフルト・アム・マイン
飛行場実況気象(Metar)
観測時間02/26 04:20 CET (02/26 03:20 UTC)
風向・風速北北東 5m/s
視程10km以上
天気現象
なし
気温-6℃
湿度58%
気圧1027hPa
METAREDDF 260320Z 02009KT CAVOK M06/M13 Q1027 R88/0///95 NOSIG
過去の天気等 Google飛行場航空写真 Wunderground天気予報

過去48時間のMETAR

飛行場予報(TAF)
発表時間: 2/26 00:00 CET (2/25 23:00 UTC)
予報対象時間: 26日1時 CET ~ 27日7時 CET
風向・風速北東 6m/s
視程10km以上
なし
26日8時 CET ~ 26日21時 CET に一時的に
全天の8割程度の雲 雲底高度 1,220m
26日10時 CET ~ 26日19時 CET に 確率 30% で一時的に
風向・風速北東 8m/s 瞬間風速 13m/s
26日23時 CET ~ 27日7時 CET に 確率 30% で一時的に
風向・風速北東 4m/s
TAF EDDF 252300Z 2600/2706 04012KT CAVOK
TEMPO 2607/2620 BKN040
PROB30 TEMPO 2609/2618 04015G25KT
PROB30 TEMPO 2622/2706 04007KT